Embajador Martini, Argentina
Current Conditions -  °F | °C
As of 2:00 AM on Saturday 22 Nov 2014 (Local Time) from SAOC Reporting Station
Clear Clear  
Wind Chill: 52°   Ceiling: Unl
Heat Index: 52°   Visibility: 6mi
Dew Point: 50°   Wind: 6mph
Humidity: 94%   Direction: 270°W
Pressure: 29.94"   Gusts: NA
Location:  35.39°S, 64.29°W
Report Text: SAOC 220500Z 27005KT CAVOK 11/10 Q1014
Loading
Personal Weather Stations






























Interactive Weather Map New forecast layout! Learn more

10-Day Weather Forecast

Advertisements
Track Severe Weather on mobile